Terminal Aerodrome Forecast
Issued by NWS

Home | Current Version | Previous Version | Text Only | Print | Product List | Glossary Off
Versions: 1 2 3 4 5 6 7 8 9 10 11 12 13 14 15 16 17 18 19 20

000
FTUS43 KMPX 211140
TAFAXN
TAF
KAXN 211140Z 2112/2212 10007KT 1 1/2SM BR OVC002
     FM211500 11007KT 2SM -RA BR OVC003
     FM212100 09004KT 3SM -DZ BR OVC004
     FM220200 VRB03KT 1/4SM FG VV002=

USA.gov is the U.S. government's official web portal to all federal, state and local government web resources and services.